sensor_id;sensor_type;location;lat;lon;timestamp;temperature;humidity
9723;DHT22;4900;49.306;8.500;2023-05-23T00:01:30;20.24;71.94
9723;DHT22;4900;49.306;8.500;2023-05-23T00:04:05;20.27;72.07
9723;DHT22;4900;49.306;8.500;2023-05-23T00:06:31;20.20;72.15
9723;DHT22;4900;49.306;8.500;2023-05-23T00:08:56;20.19;72.20
9723;DHT22;4900;49.306;8.500;2023-05-23T00:11:22;20.12;72.48
9723;DHT22;4900;49.306;8.500;2023-05-23T00:13:52;20.05;72.81
9723;DHT22;4900;49.306;8.500;2023-05-23T00:16:18;20.03;72.77
9723;DHT22;4900;49.306;8.500;2023-05-23T00:18:43;19.99;73.01
9723;DHT22;4900;49.306;8.500;2023-05-23T00:21:13;19.98;73.05
9723;DHT22;4900;49.306;8.500;2023-05-23T00:23:38;19.92;73.02
9723;DHT22;4900;49.306;8.500;2023-05-23T00:26:09;19.90;73.13
9723;DHT22;4900;49.306;8.500;2023-05-23T00:28:38;19.90;72.97
9723;DHT22;4900;49.306;8.500;2023-05-23T00:31:03;19.87;73.03
9723;DHT22;4900;49.306;8.500;2023-05-23T00:33:29;19.83;73.13
9723;DHT22;4900;49.306;8.500;2023-05-23T00:35:58;19.81;73.19
9723;DHT22;4900;49.306;8.500;2023-05-23T00:38:23;19.83;72.95
9723;DHT22;4900;49.306;8.500;2023-05-23T00:40:48;19.82;72.89
9723;DHT22;4900;49.306;8.500;2023-05-23T00:43:14;19.81;72.86
9723;DHT22;4900;49.306;8.500;2023-05-23T00:45:40;19.76;73.06
9723;DHT22;4900;49.306;8.500;2023-05-23T00:48:06;19.76;72.91
9723;DHT22;4900;49.306;8.500;2023-05-23T00:50:32;19.75;72.85
9723;DHT22;4900;49.306;8.500;2023-05-23T00:52:59;19.72;73.11
9723;DHT22;4900;49.306;8.500;2023-05-23T00:55:25;19.69;73.16
9723;DHT22;4900;49.306;8.500;2023-05-23T00:57:53;19.65;73.08
9723;DHT22;4900;49.306;8.500;2023-05-23T01:00:20;19.64;72.98
9723;DHT22;4900;49.306;8.500;2023-05-23T01:02:47;19.62;73.20
9723;DHT22;4900;49.306;8.500;2023-05-23T01:05:16;19.58;73.23
9723;DHT22;4900;49.306;8.500;2023-05-23T01:07:42;19.53;73.28
9723;DHT22;4900;49.306;8.500;2023-05-23T01:10:09;19.51;73.28
9723;DHT22;4900;49.306;8.500;2023-05-23T01:15:22;19.46;73.22
9723;DHT22;4900;49.306;8.500;2023-05-23T01:18:09;19.43;73.39
9723;DHT22;4900;49.306;8.500;2023-05-23T01:20:48;19.43;73.40
9723;DHT22;4900;49.306;8.500;2023-05-23T01:28:52;19.27;73.50
9723;DHT22;4900;49.306;8.500;2023-05-23T01:31:18;19.24;73.51
9723;DHT22;4900;49.306;8.500;2023-05-23T01:33:45;19.26;73.63
9723;DHT22;4900;49.306;8.500;2023-05-23T01:36:12;19.22;73.56
9723;DHT22;4900;49.306;8.500;2023-05-23T01:38:40;19.19;73.53
9723;DHT22;4900;49.306;8.500;2023-05-23T01:41:07;19.13;73.73
9723;DHT22;4900;49.306;8.500;2023-05-23T01:43:32;19.13;73.66
9723;DHT22;4900;49.306;8.500;2023-05-23T01:45:59;19.10;73.66
9723;DHT22;4900;49.306;8.500;2023-05-23T01:48:26;19.09;73.71
9723;DHT22;4900;49.306;8.500;2023-05-23T01:50:53;19.03;73.92
9723;DHT22;4900;49.306;8.500;2023-05-23T01:53:21;19.03;73.92
9723;DHT22;4900;49.306;8.500;2023-05-23T01:55:47;19.03;73.89
9723;DHT22;4900;49.306;8.500;2023-05-23T01:58:13;19.00;74.03
9723;DHT22;4900;49.306;8.500;2023-05-23T02:00:39;18.99;74.01
9723;DHT22;4900;49.306;8.500;2023-05-23T02:03:05;18.95;74.04
9723;DHT22;4900;49.306;8.500;2023-05-23T02:05:31;18.91;74.35
9723;DHT22;4900;49.306;8.500;2023-05-23T02:07:56;18.95;74.24
9723;DHT22;4900;49.306;8.500;2023-05-23T02:10:22;18.91;74.44
9723;DHT22;4900;49.306;8.500;2023-05-23T02:12:47;18.89;74.33
9723;DHT22;4900;49.306;8.500;2023-05-23T02:15:13;18.85;74.42
9723;DHT22;4900;49.306;8.500;2023-05-23T02:17:39;18.85;74.42
9723;DHT22;4900;49.306;8.500;2023-05-23T02:20:06;18.85;74.42
9723;DHT22;4900;49.306;8.500;2023-05-23T02:22:31;18.79;74.54
9723;DHT22;4900;49.306;8.500;2023-05-23T02:24:57;18.79;74.50
9723;DHT22;4900;49.306;8.500;2023-05-23T02:27:22;18.78;74.60
9723;DHT22;4900;49.306;8.500;2023-05-23T02:29:48;18.76;74.53
9723;DHT22;4900;49.306;8.500;2023-05-23T02:32:13;18.76;74.53
9723;DHT22;4900;49.306;8.500;2023-05-23T02:34:39;18.75;74.57
9723;DHT22;4900;49.306;8.500;2023-05-23T02:37:04;18.74;74.58
9723;DHT22;4900;49.306;8.500;2023-05-23T02:39:30;18.65;74.83
9723;DHT22;4900;49.306;8.500;2023-05-23T02:41:55;18.65;74.99
9723;DHT22;4900;49.306;8.500;2023-05-23T02:44:21;18.64;75.05
9723;DHT22;4900;49.306;8.500;2023-05-23T02:46:46;18.63;75.14
9723;DHT22;4900;49.306;8.500;2023-05-23T02:49:12;18.63;75.15
9723;DHT22;4900;49.306;8.500;2023-05-23T02:51:37;18.60;75.28
9723;DHT22;4900;49.306;8.500;2023-05-23T02:54:03;18.60;75.42
9723;DHT22;4900;49.306;8.500;2023-05-23T02:56:28;18.56;75.47
9723;DHT22;4900;49.306;8.500;2023-05-23T02:58:53;18.51;75.51
9723;DHT22;4900;49.306;8.500;2023-05-23T03:01:19;18.54;75.52
9723;DHT22;4900;49.306;8.500;2023-05-23T03:03:45;18.54;75.63
9723;DHT22;4900;49.306;8.500;2023-05-23T03:06:10;18.53;75.91
9723;DHT22;4900;49.306;8.500;2023-05-23T03:08:39;18.48;76.03
9723;DHT22;4900;49.306;8.500;2023-05-23T03:11:05;18.50;76.25
9723;DHT22;4900;49.306;8.500;2023-05-23T03:13:31;18.47;76.26
9723;DHT22;4900;49.306;8.500;2023-05-23T03:15:56;18.46;76.24
9723;DHT22;4900;49.306;8.500;2023-05-23T03:18:21;18.43;76.46
9723;DHT22;4900;49.306;8.500;2023-05-23T03:20:47;18.41;76.55
9723;DHT22;4900;49.306;8.500;2023-05-23T03:23:12;18.43;76.49
9723;DHT22;4900;49.306;8.500;2023-05-23T03:25:38;18.41;76.40
9723;DHT22;4900;49.306;8.500;2023-05-23T03:28:03;18.39;76.52
9723;DHT22;4900;49.306;8.500;2023-05-23T03:30:29;18.37;76.47
9723;DHT22;4900;49.306;8.500;2023-05-23T03:32:54;18.41;76.20
9723;DHT22;4900;49.306;8.500;2023-05-23T03:35:20;18.43;76.14
9723;DHT22;4900;49.306;8.500;2023-05-23T03:37:45;18.43;76.15
9723;DHT22;4900;49.306;8.500;2023-05-23T03:40:10;18.43;76.29
9723;DHT22;4900;49.306;8.500;2023-05-23T03:42:38;18.41;76.12
9723;DHT22;4900;49.306;8.500;2023-05-23T03:45:04;18.44;75.98
9723;DHT22;4900;49.306;8.500;2023-05-23T03:47:30;18.36;76.33
9723;DHT22;4900;49.306;8.500;2023-05-23T03:49:55;18.34;76.44
9723;DHT22;4900;49.306;8.500;2023-05-23T03:52:21;18.34;76.31
9723;DHT22;4900;49.306;8.500;2023-05-23T03:54:46;18.34;76.31
9723;DHT22;4900;49.306;8.500;2023-05-23T03:57:12;18.29;76.28
9723;DHT22;4900;49.306;8.500;2023-05-23T03:59:37;18.36;75.95
9723;DHT22;4900;49.306;8.500;2023-05-23T04:02:03;18.36;75.72
9723;DHT22;4900;49.306;8.500;2023-05-23T04:04:29;18.37;75.54
9723;DHT22;4900;49.306;8.500;2023-05-23T04:06:55;18.40;75.41
9723;DHT22;4900;49.306;8.500;2023-05-23T04:09:20;18.40;75.22
9723;DHT22;4900;49.306;8.500;2023-05-23T04:11:46;18.44;75.00
9723;DHT22;4900;49.306;8.500;2023-05-23T04:14:11;18.44;74.69
9723;DHT22;4900;49.306;8.500;2023-05-23T04:16:38;18.50;74.53
9723;DHT22;4900;49.306;8.500;2023-05-23T04:19:06;18.44;74.49
9723;DHT22;4900;49.306;8.500;2023-05-23T04:21:31;18.44;74.14
9723;DHT22;4900;49.306;8.500;2023-05-23T04:23:57;18.47;73.98
9723;DHT22;4900;49.306;8.500;2023-05-23T04:26:22;18.47;73.82
9723;DHT22;4900;49.306;8.500;2023-05-23T04:28:48;18.51;73.53
9723;DHT22;4900;49.306;8.500;2023-05-23T04:31:14;18.53;73.27
9723;DHT22;4900;49.306;8.500;2023-05-23T04:33:40;18.61;73.06
9723;DHT22;4900;49.306;8.500;2023-05-23T04:36:06;18.53;72.95
9723;DHT22;4900;49.306;8.500;2023-05-23T04:38:34;18.56;72.86
9723;DHT22;4900;49.306;8.500;2023-05-23T04:41:03;18.64;72.55
9723;DHT22;4900;49.306;8.500;2023-05-23T04:43:30;18.64;72.56
9723;DHT22;4900;49.306;8.500;2023-05-23T04:46:00;18.67;72.36
9723;DHT22;4900;49.306;8.500;2023-05-23T04:48:26;18.71;72.10
9723;DHT22;4900;49.306;8.500;2023-05-23T04:50:52;18.79;71.87
9723;DHT22;4900;49.306;8.500;2023-05-23T04:53:22;18.67;71.92
9723;DHT22;4900;49.306;8.500;2023-05-23T04:55:48;18.75;71.71
9723;DHT22;4900;49.306;8.500;2023-05-23T04:58:13;18.75;71.58
9723;DHT22;4900;49.306;8.500;2023-05-23T05:00:39;18.85;71.25
9723;DHT22;4900;49.306;8.500;2023-05-23T05:03:04;18.86;71.16
9723;DHT22;4900;49.306;8.500;2023-05-23T05:05:30;18.79;71.04
9723;DHT22;4900;49.306;8.500;2023-05-23T05:07:56;18.95;70.90
9723;DHT22;4900;49.306;8.500;2023-05-23T05:10:21;18.96;70.75
9723;DHT22;4900;49.306;8.500;2023-05-23T05:12:47;18.98;70.59
9723;DHT22;4900;49.306;8.500;2023-05-23T05:15:15;19.09;70.30
9723;DHT22;4900;49.306;8.500;2023-05-23T05:17:42;19.14;70.06
9723;DHT22;4900;49.306;8.500;2023-05-23T05:20:08;19.13;69.96
9723;DHT22;4900;49.306;8.500;2023-05-23T05:22:35;19.18;69.73
9723;DHT22;4900;49.306;8.500;2023-05-23T05:25:02;19.13;69.50
9723;DHT22;4900;49.306;8.500;2023-05-23T05:27:28;19.07;69.53
9723;DHT22;4900;49.306;8.500;2023-05-23T05:29:53;19.07;69.48
9723;DHT22;4900;49.306;8.500;2023-05-23T05:32:22;19.22;69.11
9723;DHT22;4900;49.306;8.500;2023-05-23T05:34:48;19.12;69.10
9723;DHT22;4900;49.306;8.500;2023-05-23T05:37:15;19.04;69.11
9723;DHT22;4900;49.306;8.500;2023-05-23T05:39:40;19.03;68.87
9723;DHT22;4900;49.306;8.500;2023-05-23T05:42:06;19.22;68.82
9723;DHT22;4900;49.306;8.500;2023-05-23T05:44:31;19.16;68.54
9723;DHT22;4900;49.306;8.500;2023-05-23T05:46:56;19.31;67.90
9723;DHT22;4900;49.306;8.500;2023-05-23T05:49:22;19.36;67.35
9723;DHT22;4900;49.306;8.500;2023-05-23T05:51:47;19.47;67.02
9723;DHT22;4900;49.306;8.500;2023-05-23T05:54:13;19.55;66.39
9723;DHT22;4900;49.306;8.500;2023-05-23T05:56:38;19.75;65.55
9723;DHT22;4900;49.306;8.500;2023-05-23T05:59:04;20.09;64.68
9723;DHT22;4900;49.306;8.500;2023-05-23T06:01:29;20.29;63.59
9723;DHT22;4900;49.306;8.500;2023-05-23T06:03:55;20.24;63.44
9723;DHT22;4900;49.306;8.500;2023-05-23T06:06:20;20.26;63.51
9723;DHT22;4900;49.306;8.500;2023-05-23T06:08:46;20.19;63.87
9723;DHT22;4900;49.306;8.500;2023-05-23T06:11:12;20.38;63.60
9723;DHT22;4900;49.306;8.500;2023-05-23T06:13:37;20.45;63.57
9723;DHT22;4900;49.306;8.500;2023-05-23T06:16:03;20.57;63.35
9723;DHT22;4900;49.306;8.500;2023-05-23T06:18:28;20.54;63.31
9723;DHT22;4900;49.306;8.500;2023-05-23T06:20:54;20.57;62.98
9723;DHT22;4900;49.306;8.500;2023-05-23T06:23:20;20.52;62.84
9723;DHT22;4900;49.306;8.500;2023-05-23T06:25:45;20.52;62.95
9723;DHT22;4900;49.306;8.500;2023-05-23T06:28:11;20.58;62.55
9723;DHT22;4900;49.306;8.500;2023-05-23T06:30:36;20.72;62.32
9723;DHT22;4900;49.306;8.500;2023-05-23T06:33:03;20.92;61.84
9723;DHT22;4900;49.306;8.500;2023-05-23T06:35:28;21.06;61.54
9723;DHT22;4900;49.306;8.500;2023-05-23T06:37:54;21.29;61.03
9723;DHT22;4900;49.306;8.500;2023-05-23T06:40:20;21.44;60.70
9723;DHT22;4900;49.306;8.500;2023-05-23T06:42:45;21.31;60.35
9723;DHT22;4900;49.306;8.500;2023-05-23T06:45:11;21.20;60.39
9723;DHT22;4900;49.306;8.500;2023-05-23T06:47:37;21.24;60.17
9723;DHT22;4900;49.306;8.500;2023-05-23T06:50:03;21.23;60.20
9723;DHT22;4900;49.306;8.500;2023-05-23T06:52:28;21.17;59.98
9723;DHT22;4900;49.306;8.500;2023-05-23T06:54:54;21.16;59.85
9723;DHT22;4900;49.306;8.500;2023-05-23T06:57:19;21.07;59.91
9723;DHT22;4900;49.306;8.500;2023-05-23T06:59:45;21.10;60.04
9723;DHT22;4900;49.306;8.500;2023-05-23T07:02:10;21.13;60.10
9723;DHT22;4900;49.306;8.500;2023-05-23T07:04:36;21.21;60.00
9723;DHT22;4900;49.306;8.500;2023-05-23T07:07:01;21.50;59.47
9723;DHT22;4900;49.306;8.500;2023-05-23T07:09:27;21.81;58.97
9723;DHT22;4900;49.306;8.500;2023-05-23T07:11:52;22.06;58.23
9723;DHT22;4900;49.306;8.500;2023-05-23T07:14:17;22.12;57.99
9723;DHT22;4900;49.306;8.500;2023-05-23T07:16:44;22.03;57.79
9723;DHT22;4900;49.306;8.500;2023-05-23T07:19:09;21.78;57.88
9723;DHT22;4900;49.306;8.500;2023-05-23T07:21:35;21.57;58.16
9723;DHT22;4900;49.306;8.500;2023-05-23T07:24:00;21.57;58.30
9723;DHT22;4900;49.306;8.500;2023-05-23T07:26:26;21.40;58.39
9723;DHT22;4900;49.306;8.500;2023-05-23T07:28:51;21.24;58.59
9723;DHT22;4900;49.306;8.500;2023-05-23T07:31:17;21.31;58.59
9723;DHT22;4900;49.306;8.500;2023-05-23T07:33:42;21.30;58.95
9723;DHT22;4900;49.306;8.500;2023-05-23T07:36:09;21.24;58.85
9723;DHT22;4900;49.306;8.500;2023-05-23T07:38:34;21.16;58.93
9723;DHT22;4900;49.306;8.500;2023-05-23T07:41:00;21.09;59.01
9723;DHT22;4900;49.306;8.500;2023-05-23T07:43:25;21.29;58.83
9723;DHT22;4900;49.306;8.500;2023-05-23T07:45:51;21.34;58.79
9723;DHT22;4900;49.306;8.500;2023-05-23T07:48:16;21.40;58.82
9723;DHT22;4900;49.306;8.500;2023-05-23T07:50:41;21.53;58.79
9723;DHT22;4900;49.306;8.500;2023-05-23T07:53:07;21.54;58.65
9723;DHT22;4900;49.306;8.500;2023-05-23T07:55:33;21.44;58.83
9723;DHT22;4900;49.306;8.500;2023-05-23T07:57:58;21.54;58.58
9723;DHT22;4900;49.306;8.500;2023-05-23T08:00:24;21.53;58.83
9723;DHT22;4900;49.306;8.500;2023-05-23T08:02:49;21.55;58.70
9723;DHT22;4900;49.306;8.500;2023-05-23T08:05:15;21.55;58.75
9723;DHT22;4900;49.306;8.500;2023-05-23T08:07:40;21.53;58.72
9723;DHT22;4900;49.306;8.500;2023-05-23T08:10:06;21.62;58.48
9723;DHT22;4900;49.306;8.500;2023-05-23T08:12:31;21.57;58.34
9723;DHT22;4900;49.306;8.500;2023-05-23T08:14:57;21.71;58.32
9723;DHT22;4900;49.306;8.500;2023-05-23T08:17:23;21.89;57.92
9723;DHT22;4900;49.306;8.500;2023-05-23T08:19:48;21.91;57.73
9723;DHT22;4900;49.306;8.500;2023-05-23T08:22:14;21.82;57.39
9723;DHT22;4900;49.306;8.500;2023-05-23T08:24:39;21.91;57.11
9723;DHT22;4900;49.306;8.500;2023-05-23T08:27:05;21.85;56.93
9723;DHT22;4900;49.306;8.500;2023-05-23T08:29:32;21.86;56.58
9723;DHT22;4900;49.306;8.500;2023-05-23T08:31:59;21.93;56.31
9723;DHT22;4900;49.306;8.500;2023-05-23T08:34:25;22.31;55.90
9723;DHT22;4900;49.306;8.500;2023-05-23T08:36:50;22.43;55.60
9723;DHT22;4900;49.306;8.500;2023-05-23T08:39:17;22.79;54.80
9723;DHT22;4900;49.306;8.500;2023-05-23T08:41:42;23.15;54.08
9723;DHT22;4900;49.306;8.500;2023-05-23T08:44:08;23.23;52.67
9723;DHT22;4900;49.306;8.500;2023-05-23T08:46:38;23.35;51.70
9723;DHT22;4900;49.306;8.500;2023-05-23T08:49:06;23.40;51.42
9723;DHT22;4900;49.306;8.500;2023-05-23T08:51:34;23.59;51.14
9723;DHT22;4900;49.306;8.500;2023-05-23T08:54:01;23.64;50.84
9723;DHT22;4900;49.306;8.500;2023-05-23T08:56:26;23.82;50.57
9723;DHT22;4900;49.306;8.500;2023-05-23T08:58:52;23.86;50.45
9723;DHT22;4900;49.306;8.500;2023-05-23T09:01:19;23.96;50.21
9723;DHT22;4900;49.306;8.500;2023-05-23T09:03:44;23.98;50.09
9723;DHT22;4900;49.306;8.500;2023-05-23T09:06:10;23.90;50.47
9723;DHT22;4900;49.306;8.500;2023-05-23T09:08:35;23.78;50.36
9723;DHT22;4900;49.306;8.500;2023-05-23T09:11:03;23.90;50.44
9723;DHT22;4900;49.306;8.500;2023-05-23T09:13:29;23.89;50.58
9723;DHT22;4900;49.306;8.500;2023-05-23T09:18:37;24.02;49.61
9723;DHT22;4900;49.306;8.500;2023-05-23T09:21:03;24.37;49.35
9723;DHT22;4900;49.306;8.500;2023-05-23T09:23:32;24.85;48.64
9723;DHT22;4900;49.306;8.500;2023-05-23T09:26:09;25.48;48.31
9723;DHT22;4900;49.306;8.500;2023-05-23T09:28:37;26.55;47.06
9723;DHT22;4900;49.306;8.500;2023-05-23T09:31:04;27.64;45.11
9723;DHT22;4900;49.306;8.500;2023-05-23T09:33:47;28.67;42.34
9723;DHT22;4900;49.306;8.500;2023-05-23T09:36:13;29.19;41.39
9723;DHT22;4900;49.306;8.500;2023-05-23T09:38:40;29.92;39.61
9723;DHT22;4900;49.306;8.500;2023-05-23T09:41:07;30.75;38.58
9723;DHT22;4900;49.306;8.500;2023-05-23T09:43:33;30.61;37.44
9723;DHT22;4900;49.306;8.500;2023-05-23T09:46:11;30.24;37.97
9723;DHT22;4900;49.306;8.500;2023-05-23T09:48:37;30.12;38.36
9723;DHT22;4900;49.306;8.500;2023-05-23T09:51:08;30.02;38.13
9723;DHT22;4900;49.306;8.500;2023-05-23T09:53:34;29.76;38.76
9723;DHT22;4900;49.306;8.500;2023-05-23T09:56:01;29.54;39.30
9723;DHT22;4900;49.306;8.500;2023-05-23T09:58:28;29.34;39.85
9723;DHT22;4900;49.306;8.500;2023-05-23T10:00:58;29.37;39.89
9723;DHT22;4900;49.306;8.500;2023-05-23T10:03:34;29.03;39.92
9723;DHT22;4900;49.306;8.500;2023-05-23T10:06:09;28.67;40.58
9723;DHT22;4900;49.306;8.500;2023-05-23T10:08:42;28.29;41.32
9723;DHT22;4900;49.306;8.500;2023-05-23T10:14:09;27.44;42.60
9723;DHT22;4900;49.306;8.500;2023-05-23T10:22:07;27.21;43.45
9723;DHT22;4900;49.306;8.500;2023-05-23T10:24:35;27.33;43.58
9723;DHT22;4900;49.306;8.500;2023-05-23T10:27:02;27.46;43.54
9723;DHT22;4900;49.306;8.500;2023-05-23T10:29:28;27.85;43.29
9723;DHT22;4900;49.306;8.500;2023-05-23T10:31:54;28.83;42.41
9723;DHT22;4900;49.306;8.500;2023-05-23T10:34:33;30.44;40.79
9723;DHT22;4900;49.306;8.500;2023-05-23T10:37:06;30.82;39.03
9723;DHT22;4900;49.306;8.500;2023-05-23T10:40:01;30.64;38.42
9723;DHT22;4900;49.306;8.500;2023-05-23T10:45:52;29.58;39.31
9723;DHT22;4900;49.306;8.500;2023-05-23T10:51:08;28.40;41.16
9723;DHT22;4900;49.306;8.500;2023-05-23T10:53:38;27.64;42.26
9723;DHT22;4900;49.306;8.500;2023-05-23T10:56:09;27.03;43.52
9723;DHT22;4900;49.306;8.500;2023-05-23T10:58:36;26.85;43.97
9723;DHT22;4900;49.306;8.500;2023-05-23T11:01:07;26.30;44.96
9723;DHT22;4900;49.306;8.500;2023-05-23T11:09:02;25.31;46.89
9723;DHT22;4900;49.306;8.500;2023-05-23T11:14:13;25.14;47.63
9723;DHT22;4900;49.306;8.500;2023-05-23T11:16:43;25.06;47.73
9723;DHT22;4900;49.306;8.500;2023-05-23T11:19:23;24.98;48.04
9723;DHT22;4900;49.306;8.500;2023-05-23T11:21:56;24.99;48.29
9723;DHT22;4900;49.306;8.500;2023-05-23T11:24:22;25.34;47.87
9723;DHT22;4900;49.306;8.500;2023-05-23T11:26:56;25.55;47.50
9723;DHT22;4900;49.306;8.500;2023-05-23T11:29:27;26.10;46.65
9723;DHT22;4900;49.306;8.500;2023-05-23T11:31:56;26.65;46.14
9723;DHT22;4900;49.306;8.500;2023-05-23T11:34:24;26.89;44.98
9723;DHT22;4900;49.306;8.500;2023-05-23T11:36:54;27.29;44.42
9723;DHT22;4900;49.306;8.500;2023-05-23T11:39:20;27.65;44.01
9723;DHT22;4900;49.306;8.500;2023-05-23T11:42:02;28.33;42.94
9723;DHT22;4900;49.306;8.500;2023-05-23T11:44:28;28.57;42.68
9723;DHT22;4900;49.306;8.500;2023-05-23T11:47:04;28.83;42.29
9723;DHT22;4900;49.306;8.500;2023-05-23T11:49:33;28.81;41.65
9723;DHT22;4900;49.306;8.500;2023-05-23T11:52:00;28.45;41.79
9723;DHT22;4900;49.306;8.500;2023-05-23T11:54:27;28.37;41.98
9723;DHT22;4900;49.306;8.500;2023-05-23T11:56:53;28.44;42.04
9723;DHT22;4900;49.306;8.500;2023-05-23T11:59:23;28.57;41.65
9723;DHT22;4900;49.306;8.500;2023-05-23T12:01:50;28.65;41.33
9723;DHT22;4900;49.306;8.500;2023-05-23T12:04:16;28.48;41.17
9723;DHT22;4900;49.306;8.500;2023-05-23T12:06:44;28.81;40.91
9723;DHT22;4900;49.306;8.500;2023-05-23T12:09:10;28.83;40.56
9723;DHT22;4900;49.306;8.500;2023-05-23T12:11:38;29.27;40.44
9723;DHT22;4900;49.306;8.500;2023-05-23T12:14:05;29.30;40.16
9723;DHT22;4900;49.306;8.500;2023-05-23T12:16:34;29.55;39.91
9723;DHT22;4900;49.306;8.500;2023-05-23T12:19:01;29.55;39.69
9723;DHT22;4900;49.306;8.500;2023-05-23T12:21:48;29.78;39.43
9723;DHT22;4900;49.306;8.500;2023-05-23T12:24:18;30.09;38.31
9723;DHT22;4900;49.306;8.500;2023-05-23T12:27:01;31.05;37.73
9723;DHT22;4900;49.306;8.500;2023-05-23T12:29:31;31.77;37.03
9723;DHT22;4900;49.306;8.500;2023-05-23T12:31:58;31.95;36.45
9723;DHT22;4900;49.306;8.500;2023-05-23T12:34:24;31.67;36.17
9723;DHT22;4900;49.306;8.500;2023-05-23T12:36:55;31.67;36.13
9723;DHT22;4900;49.306;8.500;2023-05-23T12:39:25;31.69;36.50
9723;DHT22;4900;49.306;8.500;2023-05-23T12:41:54;31.47;36.59
9723;DHT22;4900;49.306;8.500;2023-05-23T12:44:22;31.51;36.68
9723;DHT22;4900;49.306;8.500;2023-05-23T12:46:47;31.97;36.33
9723;DHT22;4900;49.306;8.500;2023-05-23T12:49:13;31.67;36.22
9723;DHT22;4900;49.306;8.500;2023-05-23T12:51:39;31.54;36.22
9723;DHT22;4900;49.306;8.500;2023-05-23T12:54:04;31.61;36.12
9723;DHT22;4900;49.306;8.500;2023-05-23T12:56:30;31.57;36.07
9723;DHT22;4900;49.306;8.500;2023-05-23T12:58:56;31.23;36.48
9723;DHT22;4900;49.306;8.500;2023-05-23T13:01:21;31.34;36.77
9723;DHT22;4900;49.306;8.500;2023-05-23T13:03:47;31.07;37.12
9723;DHT22;4900;49.306;8.500;2023-05-23T13:06:12;31.06;37.11
9723;DHT22;4900;49.306;8.500;2023-05-23T13:08:38;31.09;36.94
9723;DHT22;4900;49.306;8.500;2023-05-23T13:11:04;30.95;37.03
9723;DHT22;4900;49.306;8.500;2023-05-23T13:13:29;30.89;37.11
9723;DHT22;4900;49.306;8.500;2023-05-23T13:15:56;30.86;37.43
9723;DHT22;4900;49.306;8.500;2023-05-23T13:18:22;30.86;37.23
9723;DHT22;4900;49.306;8.500;2023-05-23T13:20:47;30.69;37.46
9723;DHT22;4900;49.306;8.500;2023-05-23T13:23:13;30.76;37.72
9723;DHT22;4900;49.306;8.500;2023-05-23T13:25:39;30.61;37.86
9723;DHT22;4900;49.306;8.500;2023-05-23T13:28:04;30.16;38.28
9723;DHT22;4900;49.306;8.500;2023-05-23T13:30:31;29.66;38.93
9723;DHT22;4900;49.306;8.500;2023-05-23T13:32:56;29.29;39.49
9723;DHT22;4900;49.306;8.500;2023-05-23T13:35:22;29.26;39.66
9723;DHT22;4900;49.306;8.500;2023-05-23T13:37:47;29.30;39.74
9723;DHT22;4900;49.306;8.500;2023-05-23T13:40:17;29.88;39.40
9723;DHT22;4900;49.306;8.500;2023-05-23T13:42:44;29.41;38.88
9723;DHT22;4900;49.306;8.500;2023-05-23T13:45:09;28.79;39.59
9723;DHT22;4900;49.306;8.500;2023-05-23T13:47:35;28.64;39.99
9723;DHT22;4900;49.306;8.500;2023-05-23T13:50:02;28.52;40.44
9723;DHT22;4900;49.306;8.500;2023-05-23T13:52:28;28.14;41.29
9723;DHT22;4900;49.306;8.500;2023-05-23T13:54:54;28.31;41.13
9723;DHT22;4900;49.306;8.500;2023-05-23T13:57:20;28.64;40.91
9723;DHT22;4900;49.306;8.500;2023-05-23T13:59:45;29.57;40.19
9723;DHT22;4900;49.306;8.500;2023-05-23T14:02:11;30.00;39.12
9723;DHT22;4900;49.306;8.500;2023-05-23T14:04:36;30.33;37.91
9723;DHT22;4900;49.306;8.500;2023-05-23T14:07:02;31.05;37.08
9723;DHT22;4900;49.306;8.500;2023-05-23T14:09:28;31.58;36.09
9723;DHT22;4900;49.306;8.500;2023-05-23T14:11:53;31.69;35.65
9723;DHT22;4900;49.306;8.500;2023-05-23T14:14:19;31.29;35.88
9723;DHT22;4900;49.306;8.500;2023-05-23T14:16:45;30.92;36.41
9723;DHT22;4900;49.306;8.500;2023-05-23T14:19:10;31.02;37.01
9723;DHT22;4900;49.306;8.500;2023-05-23T14:21:35;31.19;36.33
9723;DHT22;4900;49.306;8.500;2023-05-23T14:24:02;30.89;36.14
9723;DHT22;4900;49.306;8.500;2023-05-23T14:26:27;30.65;36.41
9723;DHT22;4900;49.306;8.500;2023-05-23T14:28:52;30.60;36.80
9723;DHT22;4900;49.306;8.500;2023-05-23T14:31:18;30.58;36.99
9723;DHT22;4900;49.306;8.500;2023-05-23T14:33:46;30.61;37.02
9723;DHT22;4900;49.306;8.500;2023-05-23T14:36:12;31.06;36.90
9723;DHT22;4900;49.306;8.500;2023-05-23T14:38:37;31.38;36.08
9723;DHT22;4900;49.306;8.500;2023-05-23T14:41:04;31.43;35.77
9723;DHT22;4900;49.306;8.500;2023-05-23T14:43:29;31.75;35.41
9723;DHT22;4900;49.306;8.500;2023-05-23T14:45:56;31.65;34.86
9723;DHT22;4900;49.306;8.500;2023-05-23T14:48:21;31.19;35.01
9723;DHT22;4900;49.306;8.500;2023-05-23T14:50:47;31.23;34.93
9723;DHT22;4900;49.306;8.500;2023-05-23T14:53:12;30.86;35.54
9723;DHT22;4900;49.306;8.500;2023-05-23T14:55:38;30.54;36.36
9723;DHT22;4900;49.306;8.500;2023-05-23T14:58:03;30.16;36.57
9723;DHT22;4900;49.306;8.500;2023-05-23T15:00:30;30.44;36.62
9723;DHT22;4900;49.306;8.500;2023-05-23T15:02:56;30.37;37.00
9723;DHT22;4900;49.306;8.500;2023-05-23T15:05:22;29.95;37.11
9723;DHT22;4900;49.306;8.500;2023-05-23T15:07:47;29.78;37.49
9723;DHT22;4900;49.306;8.500;2023-05-23T15:10:13;29.50;38.09
9723;DHT22;4900;49.306;8.500;2023-05-23T15:12:38;29.29;38.25
9723;DHT22;4900;49.306;8.500;2023-05-23T15:15:04;29.16;38.44
9723;DHT22;4900;49.306;8.500;2023-05-23T15:17:34;29.30;38.63
9723;DHT22;4900;49.306;8.500;2023-05-23T15:20:00;29.14;38.83
9723;DHT22;4900;49.306;8.500;2023-05-23T15:22:25;29.23;38.65
9723;DHT22;4900;49.306;8.500;2023-05-23T15:24:51;28.86;38.91
9723;DHT22;4900;49.306;8.500;2023-05-23T15:27:17;28.99;39.18
9723;DHT22;4900;49.306;8.500;2023-05-23T15:29:44;29.17;39.51
9723;DHT22;4900;49.306;8.500;2023-05-23T15:32:09;29.40;39.47
9723;DHT22;4900;49.306;8.500;2023-05-23T15:34:35;29.36;38.79
9723;DHT22;4900;49.306;8.500;2023-05-23T15:37:00;29.62;38.42
9723;DHT22;4900;49.306;8.500;2023-05-23T15:39:26;29.85;37.86
9723;DHT22;4900;49.306;8.500;2023-05-23T15:41:52;29.66;38.07
9723;DHT22;4900;49.306;8.500;2023-05-23T15:44:18;29.62;38.20
9723;DHT22;4900;49.306;8.500;2023-05-23T15:46:47;29.38;38.23
9723;DHT22;4900;49.306;8.500;2023-05-23T15:49:13;28.95;38.67
9723;DHT22;4900;49.306;8.500;2023-05-23T15:51:38;28.64;39.15
9723;DHT22;4900;49.306;8.500;2023-05-23T15:54:04;28.40;39.54
9723;DHT22;4900;49.306;8.500;2023-05-23T15:56:30;28.24;40.35
9723;DHT22;4900;49.306;8.500;2023-05-23T15:58:55;28.20;40.44
9723;DHT22;4900;49.306;8.500;2023-05-23T16:01:21;28.24;40.44
9723;DHT22;4900;49.306;8.500;2023-05-23T16:03:47;27.66;41.10
9723;DHT22;4900;49.306;8.500;2023-05-23T16:06:12;27.21;41.69
9723;DHT22;4900;49.306;8.500;2023-05-23T16:08:38;27.02;42.20
9723;DHT22;4900;49.306;8.500;2023-05-23T16:11:03;27.13;42.43
9723;DHT22;4900;49.306;8.500;2023-05-23T16:13:28;26.91;42.76
9723;DHT22;4900;49.306;8.500;2023-05-23T16:15:54;26.51;43.21
9723;DHT22;4900;49.306;8.500;2023-05-23T16:18:19;26.22;43.74
9723;DHT22;4900;49.306;8.500;2023-05-23T16:20:45;26.12;44.24
9723;DHT22;4900;49.306;8.500;2023-05-23T16:23:10;25.95;44.73
9723;DHT22;4900;49.306;8.500;2023-05-23T16:25:35;26.36;44.67
9723;DHT22;4900;49.306;8.500;2023-05-23T16:28:01;26.37;44.16
9723;DHT22;4900;49.306;8.500;2023-05-23T16:30:26;26.68;43.99
9723;DHT22;4900;49.306;8.500;2023-05-23T16:32:53;26.45;43.41